Time;durP1;ratioP1;P1;durP2;ratioP2;P2;SDS_P1;SDS_P2;PMS_P1;PMS_P2;Temp;Humidity;BMP_temperature;BMP_pressure;BME280_temperature;BME280_humidity;BME280_pressure;Samples;Min_cycle;Max_cycle;Signal;HPM_P1;HPM_P2
2022/07/22 00:02:06;;;;;;;20.48;17.10;;;;;;;21.58;62.13;101302.19;1675679;84;21758;-90
2022/07/22 00:04:33;;;;;;;22.05;16.55;;;;;;;21.55;62.17;101304.92;1682976;84;21123;-89
2022/07/22 00:07:00;;;;;;;20.27;16.75;;;;;;;21.53;62.24;101309.42;1682604;83;21121;-90
2022/07/22 00:09:26;;;;;;;22.02;18.50;;;;;;;21.50;62.50;101317.47;1682695;83;21083;-90
2022/07/22 00:11:54;;;;;;;22.95;17.30;;;;;;;21.45;62.63;101317.97;1682889;83;21458;-90
2022/07/22 00:14:20;;;;;;;23.00;17.67;;;;;;;21.40;62.80;101321.11;1683044;83;21868;-90
2022/07/22 00:16:47;;;;;;;21.68;17.12;;;;;;;21.35;62.93;101323.39;1682907;83;21610;-90
2022/07/22 00:19:14;;;;;;;19.92;16.97;;;;;;;21.32;62.98;101323.87;1683065;83;21148;-90
2022/07/22 00:21:40;;;;;;;23.27;17.17;;;;;;;21.29;63.04;101319.44;1682940;83;21069;-90
2022/07/22 00:24:07;;;;;;;19.23;15.98;;;;;;;21.28;63.13;101320.33;1681919;83;21141;-90
2022/07/22 00:26:35;;;;;;;20.57;16.65;;;;;;;21.27;63.12;101324.39;1676744;83;21874;-90
2022/07/22 00:29:01;;;;;;;19.87;16.93;;;;;;;21.26;63.16;101324.81;1697979;82;21061;-90
2022/07/22 00:31:28;;;;;;;21.82;17.35;;;;;;;21.25;63.25;101332.89;1711280;82;21531;-91
2022/07/22 00:33:54;;;;;;;26.05;16.87;;;;;;;21.22;63.39;101335.13;1709216;83;22323;-84
2022/07/22 00:36:21;;;;;;;20.35;16.32;;;;;;;21.22;63.55;101334.25;1684158;83;21655;-84
2022/07/22 00:38:48;;;;;;;19.12;16.70;;;;;;;21.20;63.63;101330.70;1702482;82;21735;-83
2022/07/22 00:41:15;;;;;;;20.37;16.25;;;;;;;21.18;63.75;101326.70;1703932;82;21166;-84
2022/07/22 00:44:07;;;;;;;21.80;16.82;;;;;;;21.16;63.74;101316.45;1697900;83;21051;-84
2022/07/22 00:46:34;;;;;;;17.75;14.78;;;;;;;21.15;63.78;101320.93;1699461;83;20995;-82
2022/07/22 00:49:01;;;;;;;19.37;15.38;;;;;;;21.16;63.67;101320.47;1699553;83;21031;-83
2022/07/22 00:51:29;;;;;;;19.75;15.53;;;;;;;21.15;63.61;101321.36;1699468;83;21720;-83
2022/07/22 00:53:56;;;;;;;17.23;14.93;;;;;;;21.14;63.60;101327.63;1699360;83;21051;-83
2022/07/22 00:56:23;;;;;;;18.37;15.05;;;;;;;21.11;63.57;101326.31;1699545;83;21043;-83
2022/07/22 00:58:51;;;;;;;20.17;15.03;;;;;;;21.10;63.58;101330.79;1699503;83;21007;-83
2022/07/22 01:01:17;;;;;;;18.10;14.63;;;;;;;21.06;63.54;101321.02;1699495;83;21023;-83
2022/07/22 01:03:44;;;;;;;17.48;15.40;;;;;;;21.04;63.55;101316.56;1696868;83;21662;-83
2022/07/22 01:06:11;;;;;;;22.52;14.05;;;;;;;21.03;63.58;101312.13;1674863;84;21914;-83
2022/07/22 01:08:37;;;;;;;18.67;14.75;;;;;;;21.03;63.57;101317.02;1674570;83;21431;-83
2022/07/22 01:11:14;;;;;;;20.02;15.78;;;;;;;21.00;63.56;101311.69;1674745;84;20989;-83
2022/07/22 01:13:41;;;;;;;19.42;14.70;;;;;;;20.97;63.58;101310.39;1670003;84;21012;-83
2022/07/22 01:16:09;;;;;;;17.95;15.20;;;;;;;20.95;63.60;101310.86;1674791;83;21728;-83
2022/07/22 01:18:36;;;;;;;19.57;15.68;;;;;;;20.92;63.65;101305.52;1674515;83;21524;-83
2022/07/22 01:21:04;;;;;;;19.17;15.63;;;;;;;20.89;63.67;101303.78;1674622;84;21001;-84
2022/07/22 01:23:31;;;;;;;18.15;14.85;;;;;;;20.87;63.80;101319.39;1674649;83;20965;-83
2022/07/22 01:25:57;;;;;;;18.50;15.45;;;;;;;20.83;63.84;101307.81;1674423;84;20993;-83
2022/07/22 01:28:24;;;;;;;20.15;15.48;;;;;;;20.81;63.91;101306.95;1674412;84;21974;-83
2022/07/22 01:30:51;;;;;;;18.35;15.38;;;;;;;20.78;63.98;101298.51;1674622;83;20973;-83
2022/07/22 01:33:19;;;;;;;23.05;15.40;;;;;;;20.76;63.99;101294.96;1674427;83;20969;-84
2022/07/22 01:35:45;;;;;;;19.20;15.95;;;;;;;20.74;64.06;101303.45;1673049;83;21060;-84
2022/07/22 01:38:13;;;;;;;22.05;16.45;;;;;;;20.73;64.17;101300.33;1672675;84;20976;-83
2022/07/22 01:40:40;;;;;;;21.27;16.75;;;;;;;20.71;64.20;101302.13;1671572;84;21763;-84
2022/07/22 01:43:07;;;;;;;19.35;15.88;;;;;;;20.69;64.31;101307.06;1658777;84;21133;-84
2022/07/22 01:45:34;;;;;;;25.68;16.02;;;;;;;20.65;64.41;101304.86;1660602;84;21081;-84
2022/07/22 01:48:01;;;;;;;23.67;16.42;;;;;;;20.63;64.45;101302.66;1655644;84;21061;-83
2022/07/22 01:50:28;;;;;;;21.10;16.32;;;;;;;20.59;64.57;101302.21;1655660;84;21065;-84
2022/07/22 01:52:54;;;;;;;18.55;14.47;;;;;;;20.56;64.61;101303.56;1632727;84;22535;-84
2022/07/22 01:55:21;;;;;;;23.18;17.27;;;;;;;20.51;64.68;101296.89;1655623;84;21512;-84
2022/07/22 01:57:48;;;;;;;19.35;16.02;;;;;;;20.49;64.82;101287.99;1664719;84;21207;-84
2022/07/22 02:00:16;;;;;;;19.95;15.40;;;;;;;20.46;64.89;101284.03;1655340;84;21128;-84
2022/07/22 02:02:42;;;;;;;17.07;15.13;;;;;;;20.46;64.91;101295.15;1655584;84;22043;-84
2022/07/22 02:05:12;;;;;;;22.82;16.32;;;;;;;20.43;64.95;101301.42;1667420;84;21808;-84
2022/07/22 02:07:39;;;;;;;17.90;15.90;;;;;;;20.43;65.02;101297.86;1655483;84;21081;-84
2022/07/22 02:10:06;;;;;;;21.75;16.17;;;;;;;20.39;65.12;101291.19;1664199;83;21060;-83
2022/07/22 02:12:33;;;;;;;22.55;15.70;;;;;;;20.38;65.16;101286.76;1655507;84;21309;-83
2022/07/22 02:15:00;;;;;;;21.05;16.73;;;;;;;20.37;65.21;101280.08;1654958;84;21081;-82
2022/07/22 02:17:27;;;;;;;24.20;16.30;;;;;;;20.36;65.26;101279.62;1655478;84;21732;-83
2022/07/22 02:19:53;;;;;;;19.27;16.62;;;;;;;20.35;65.29;101277.41;1655436;84;21081;-83
2022/07/22 02:22:20;;;;;;;24.00;16.02;;;;;;;20.34;65.31;101281.42;1631510;84;21082;-83
2022/07/22 02:24:47;;;;;;;22.15;16.17;;;;;;;20.33;65.38;101279.67;1655283;84;21073;-83
2022/07/22 02:27:14;;;;;;;20.43;16.20;;;;;;;20.32;65.45;101288.57;1655765;84;21133;-83
2022/07/22 02:29:41;;;;;;;21.12;17.05;;;;;;;20.27;65.62;101287.70;1663862;84;21739;-84
2022/07/22 02:32:08;;;;;;;19.70;16.30;;;;;;;20.26;65.73;101292.62;1655386;84;21085;-83
2022/07/22 02:34:34;;;;;;;24.18;17.32;;;;;;;20.23;65.79;101297.53;1664899;84;21077;-83
2022/07/22 02:37:01;;;;;;;23.55;18.48;;;;;;;20.22;65.88;101297.11;1655790;84;21114;-83
2022/07/22 02:39:28;;;;;;;23.15;18.20;;;;;;;20.21;65.94;101302.00;1655855;84;21169;-84
2022/07/22 02:41:55;;;;;;;19.82;17.10;;;;;;;20.18;66.04;101305.59;1655647;84;23083;-83
2022/07/22 02:44:22;;;;;;;22.00;17.27;;;;;;;20.17;66.20;101298.91;1667684;83;21086;-84
2022/07/22 02:46:49;;;;;;;25.05;17.35;;;;;;;20.15;66.27;101313.61;1669455;84;21701;-84
2022/07/22 02:49:15;;;;;;;23.07;17.20;;;;;;;20.15;66.45;101327.44;1660880;85;21412;-83
2022/07/22 02:51:42;;;;;;;19.10;16.67;;;;;;;20.12;66.63;101328.35;1666418;85;21557;-83
2022/07/22 02:54:09;;;;;;;20.48;17.65;;;;;;;20.08;66.76;101323.89;1672768;85;21735;-83
2022/07/22 02:56:36;;;;;;;20.10;16.90;;;;;;;20.08;66.88;101317.66;1672554;84;21081;-83
2022/07/22 02:59:03;;;;;;;22.50;16.65;;;;;;;20.08;67.03;101331.91;1660898;83;21172;-83
2022/07/22 03:01:29;;;;;;;19.48;17.45;;;;;;;20.08;67.01;101334.58;1695168;83;21058;-83
2022/07/22 03:03:56;;;;;;;18.30;16.45;;;;;;;20.09;67.08;101330.15;1672544;85;21566;-83
2022/07/22 03:06:23;;;;;;;18.52;16.17;;;;;;;20.11;67.12;101339.92;1663422;84;22586;-83
2022/07/22 03:08:50;;;;;;;19.57;17.37;;;;;;;20.13;67.15;101334.12;1655670;84;21100;-83
2022/07/22 03:11:16;;;;;;;27.70;17.90;;;;;;;20.16;67.17;101336.78;1655634;84;21484;-83
2022/07/22 03:13:43;;;;;;;23.57;17.27;;;;;;;20.23;67.18;101340.75;1655605;84;21080;-83
2022/07/22 03:16:10;;;;;;;19.87;17.05;;;;;;;20.27;67.16;101336.73;1655470;84;21069;-83
2022/07/22 03:18:36;;;;;;;18.52;16.48;;;;;;;20.32;67.18;101336.70;1655275;84;21707;-83
2022/07/22 03:21:04;;;;;;;22.55;17.10;;;;;;;20.39;67.12;101337.10;1655511;84;21084;-83
2022/07/22 03:23:30;;;;;;;20.25;16.48;;;;;;;20.45;67.08;101340.19;1655533;84;21010;-84
2022/07/22 03:25:57;;;;;;;21.50;16.40;;;;;;;20.52;67.01;101340.13;1655294;84;21133;-83
2022/07/22 03:28:24;;;;;;;17.73;15.60;;;;;;;20.61;66.93;101342.33;1655527;84;21073;-83
2022/07/22 03:30:50;;;;;;;22.45;16.82;;;;;;;20.70;66.84;101343.17;1633505;84;22011;-83
2022/07/22 03:33:17;;;;;;;20.92;16.10;;;;;;;20.83;66.74;101352.42;1655544;84;21128;-83
2022/07/22 03:35:44;;;;;;;20.92;15.85;;;;;;;20.96;66.62;101358.99;1655343;84;21149;-83
2022/07/22 03:38:11;;;;;;;20.62;15.50;;;;;;;21.10;66.45;101358.89;1655243;84;21593;-83
2022/07/22 03:40:37;;;;;;;19.45;14.28;;;;;;;21.28;66.35;101364.97;1662252;84;21098;-83
2022/07/22 03:43:04;;;;;;;17.73;14.78;;;;;;;21.47;66.18;101364.37;1660447;84;21801;-84
2022/07/22 03:45:31;;;;;;;19.12;16.07;;;;;;;21.73;66.22;101365.42;1667044;84;21019;-83
2022/07/22 03:47:58;;;;;;;24.77;16.65;;;;;;;22.11;65.77;101365.41;1671889;84;21080;-83
2022/07/22 03:50:26;;;;;;;20.90;15.05;;;;;;;22.51;65.64;101365.78;1653284;85;21116;-83
2022/07/22 03:52:53;;;;;;;17.87;15.35;;;;;;;23.30;65.63;101376.63;1672170;85;21567;-83
2022/07/22 03:55:20;;;;;;;16.50;13.75;;;;;;;24.23;64.83;101375.27;1653029;85;21759;-84
2022/07/22 03:57:47;;;;;;;16.45;14.13;;;;;;;25.10;63.13;101382.70;1672101;84;21349;-83
2022/07/22 04:00:15;;;;;;;19.20;14.15;;;;;;;25.67;61.86;101371.30;1668514;85;21184;-83
2022/07/22 04:02:41;;;;;;;20.15;15.08;;;;;;;26.20;60.75;101368.00;1687173;84;21600;-83
2022/07/22 04:05:08;;;;;;;16.80;14.50;;;;;;;26.74;59.46;101360.95;1669609;84;21545;-82
2022/07/22 04:07:36;;;;;;;16.95;12.90;;;;;;;27.20;58.33;101345.89;1635068;85;22449;-82
2022/07/22 04:10:05;;;;;;;19.32;13.62;;;;;;;27.76;57.37;101343.47;1667677;84;21052;-83
2022/07/22 04:12:37;;;;;;;16.02;12.23;;;;;;;28.23;56.05;101340.78;1669209;84;21060;-83
2022/07/22 04:15:05;;;;;;;16.32;12.28;;;;;;;28.66;55.17;101339.09;1670205;85;21404;-83
2022/07/22 04:17:32;;;;;;;19.25;12.85;;;;;;;29.19;54.38;101334.20;1674023;85;21037;-83
2022/07/22 04:20:00;;;;;;;16.50;12.13;;;;;;;29.75;53.51;101325.37;1673905;85;21833;-83
2022/07/22 04:22:29;;;;;;;16.23;12.23;;;;;;;30.36;52.46;101322.06;1673910;85;21006;-83
2022/07/22 04:24:55;;;;;;;14.40;11.73;;;;;;;30.98;51.64;101313.09;1672052;85;21001;-83
2022/07/22 04:27:23;;;;;;;13.53;11.55;;;;;;;31.74;50.54;101314.06;1670443;84;21013;-83
2022/07/22 04:29:50;;;;;;;15.00;11.57;;;;;;;32.51;49.23;101317.91;1690904;84;21527;-83
2022/07/22 04:32:17;;;;;;;18.17;12.07;;;;;;;33.13;48.47;101316.59;1674790;84;21811;-83
2022/07/22 04:34:43;;;;;;;15.55;11.12;;;;;;;33.83;46.64;101312.68;1673538;84;21970;-83
2022/07/22 04:37:10;;;;;;;13.62;11.45;;;;;;;34.39;45.61;101313.21;1673827;84;21832;-84
2022/07/22 04:39:37;;;;;;;15.32;11.48;;;;;;;34.89;44.30;101309.41;1669916;85;21375;-84
2022/07/22 04:42:04;;;;;;;17.37;11.35;;;;;;;35.27;43.80;101308.16;1673765;84;21080;-84
2022/07/22 04:44:31;;;;;;;11.25;10.08;;;;;;;35.66;42.33;101310.38;1673820;84;21786;-84
2022/07/22 04:46:57;;;;;;;15.55;10.88;;;;;;;34.96;41.41;101308.02;1666288;84;20994;-84
2022/07/22 04:49:25;;;;;;;18.82;11.08;;;;;;;33.92;41.04;101307.13;1671385;85;22033;-84
2022/07/22 04:51:52;;;;;;;15.18;11.18;;;;;;;32.90;41.53;101304.30;1673991;84;21024;-84
2022/07/22 04:54:19;;;;;;;13.95;10.40;;;;;;;32.15;41.92;101305.45;1673855;84;21515;-84
2022/07/22 04:56:46;;;;;;;17.32;11.18;;;;;;;31.44;42.34;101302.97;1673813;84;21628;-84
2022/07/22 04:59:13;;;;;;;14.93;10.98;;;;;;;30.89;42.75;101302.66;1673938;85;20993;-84
2022/07/22 05:01:39;;;;;;;15.65;11.63;;;;;;;30.30;43.39;101309.63;1674163;85;21034;-84
2022/07/22 05:04:06;;;;;;;13.08;11.45;;;;;;;29.88;43.98;101314.80;1672810;85;21056;-84
2022/07/22 05:06:33;;;;;;;13.40;11.73;;;;;;;29.65;44.54;101311.28;1662474;85;21054;-83
2022/07/22 05:09:00;;;;;;;15.40;11.38;;;;;;;29.54;44.67;101301.41;1663515;84;21855;-84
2022/07/22 05:11:27;;;;;;;12.95;11.38;;;;;;;29.22;44.69;101307.80;1664836;84;21132;-83
2022/07/22 05:13:53;;;;;;;14.90;12.18;;;;;;;29.10;45.48;101301.55;1658611;84;21101;-84
2022/07/22 05:16:20;;;;;;;12.88;11.03;;;;;;;29.25;45.80;101303.61;1656058;84;21057;-83
2022/07/22 05:18:47;;;;;;;16.12;11.15;;;;;;;30.35;45.55;101298.56;1655955;84;21104;-84
2022/07/22 05:21:14;;;;;;;16.57;11.50;;;;;;;30.42;44.48;101304.10;1655761;84;21711;-83
2022/07/22 05:23:40;;;;;;;20.55;12.68;;;;;;;30.04;44.23;101300.03;1655689;84;21049;-84
2022/07/22 05:26:07;;;;;;;18.60;11.83;;;;;;;29.60;44.49;101305.22;1655564;84;21145;-84
2022/07/22 05:28:34;;;;;;;19.12;12.25;;;;;;;29.29;44.87;101317.04;1655329;84;21073;-83
2022/07/22 05:31:00;;;;;;;22.55;11.57;;;;;;;29.88;45.25;101328.84;1663072;84;22344;-84
2022/07/22 05:33:27;;;;;;;20.05;11.00;;;;;;;29.83;44.73;101341.29;1655187;84;22684;-83
2022/07/22 05:35:54;;;;;;;24.82;12.30;;;;;;;29.45;44.81;101347.92;1662687;84;21086;-84
2022/07/22 05:38:21;;;;;;;21.50;12.13;;;;;;;29.02;45.14;101360.16;1634637;85;21073;-83
2022/07/22 05:40:48;;;;;;;17.02;11.20;;;;;;;28.63;45.62;101372.19;1655390;84;21693;-83
2022/07/22 05:43:15;;;;;;;18.25;11.30;;;;;;;28.29;46.28;101361.31;1672095;83;21101;-84
2022/07/22 05:45:41;;;;;;;18.82;12.05;;;;;;;28.07;46.90;101299.02;1722534;82;21754;-84
2022/07/22 05:48:08;;;;;;;21.37;14.00;;;;;;;27.77;47.05;101222.14;1699567;82;21250;-84
2022/07/22 05:50:36;;;;;;;18.48;12.00;;;;;;;27.40;47.56;101238.41;1721897;82;21069;-84
2022/07/22 05:53:03;;;;;;;18.40;12.13;;;;;;;27.41;48.86;101307.78;1698099;82;21952;-83
2022/07/22 05:55:29;;;;;;;26.30;13.05;;;;;;;27.63;49.33;101337.63;1699775;82;21589;-83
2022/07/22 05:57:56;;;;;;;18.15;12.65;;;;;;;27.65;49.60;101338.45;1695970;82;21760;-83
2022/07/22 06:00:23;;;;;;;17.92;12.47;;;;;;;27.56;49.99;101342.84;1722315;82;21332;-84
2022/07/22 06:02:50;;;;;;;21.80;13.65;;;;;;;27.47;50.61;101336.41;1694077;83;21638;-83
2022/07/22 06:05:17;;;;;;;16.48;12.37;;;;;;;27.46;50.88;101339.59;1699590;82;21145;-83
2022/07/22 06:07:43;;;;;;;22.10;12.50;;;;;;;27.45;51.46;101339.16;1709129;82;21155;-83
2022/07/22 06:10:10;;;;;;;18.32;12.85;;;;;;;27.41;51.55;101330.76;1718707;81;21753;-84
2022/07/22 06:12:37;;;;;;;15.15;12.70;;;;;;;27.26;51.53;101324.56;1728995;81;21082;-83
2022/07/22 06:15:05;;;;;;;19.07;11.95;;;;;;;27.01;51.21;101309.62;1722681;82;21511;-83
2022/07/22 06:17:31;;;;;;;27.02;13.18;;;;;;;26.80;51.74;101307.20;1699110;82;21073;-83
2022/07/22 06:19:58;;;;;;;18.67;12.78;;;;;;;26.58;52.15;101310.12;1722675;82;21131;-83
2022/07/22 06:22:25;;;;;;;21.62;13.65;;;;;;;26.36;52.42;101315.80;1700158;82;21856;-83
2022/07/22 06:24:53;;;;;;;20.43;13.35;;;;;;;26.23;53.11;101325.21;1718448;82;21066;-83
2022/07/22 06:27:19;;;;;;;19.62;13.32;;;;;;;26.08;53.38;101328.80;1687598;83;21111;-83
2022/07/22 06:29:46;;;;;;;20.62;14.20;;;;;;;25.87;54.37;101326.25;1692595;84;21153;-83
2022/07/22 06:32:13;;;;;;;19.92;13.30;;;;;;;25.66;55.08;101312.94;1679855;85;21079;-83
2022/07/22 06:34:40;;;;;;;23.07;14.45;;;;;;;25.44;55.61;101316.70;1690237;83;21898;-83
2022/07/22 06:37:06;;;;;;;21.70;15.00;;;;;;;25.26;56.28;101333.36;1694311;83;21688;-83
2022/07/22 06:39:33;;;;;;;19.98;14.78;;;;;;;25.13;56.83;101350.28;1701942;83;21856;-83
2022/07/22 06:42:00;;;;;;;24.55;15.72;;;;;;;25.01;57.39;101356.40;1704643;82;21546;-84
2022/07/22 06:44:26;;;;;;;26.40;16.62;;;;;;;24.96;58.07;101351.62;1682325;83;21142;-83
2022/07/22 06:46:53;;;;;;;24.50;15.28;;;;;;;24.94;58.44;101341.78;1693858;84;22751;-84
2022/07/22 06:49:20;;;;;;;23.20;14.58;;;;;;;25.01;58.78;101350.14;1698065;83;21073;-84
2022/07/22 06:51:47;;;;;;;19.20;14.45;;;;;;;25.12;58.80;101350.75;1675602;85;21103;-84
2022/07/22 06:54:13;;;;;;;20.70;14.45;;;;;;;25.29;59.03;101358.89;1674547;83;21363;-84
2022/07/22 06:56:40;;;;;;;17.77;13.60;;;;;;;25.55;58.99;101359.53;1679699;83;21174;-84
2022/07/22 06:59:07;;;;;;;18.45;14.05;;;;;;;25.77;58.55;101354.39;1674626;83;21750;-84
2022/07/22 07:01:34;;;;;;;18.95;13.10;;;;;;;25.86;58.16;101365.39;1675875;83;21586;-83
2022/07/22 07:04:01;;;;;;;16.48;13.05;;;;;;;25.80;58.06;101365.98;1674353;83;21138;-84
2022/07/22 07:06:28;;;;;;;19.20;13.18;;;;;;;25.71;58.10;101370.28;1674442;85;21072;-83
2022/07/22 07:08:57;;;;;;;19.75;14.25;;;;;;;25.59;58.09;101350.42;1678110;84;21381;-83
2022/07/22 07:11:23;;;;;;;20.40;14.98;;;;;;;25.31;58.01;101331.44;1674044;85;21705;-84
2022/07/22 07:13:50;;;;;;;15.10;13.50;;;;;;;24.99;58.71;101343.91;1673734;85;21157;-84
2022/07/22 07:16:17;;;;;;;18.60;14.38;;;;;;;24.79;59.43;101373.55;1677255;84;21087;-84
2022/07/22 07:18:44;;;;;;;22.07;14.98;;;;;;;24.68;59.97;101382.81;1680431;84;21367;-84
2022/07/22 07:21:11;;;;;;;19.85;15.55;;;;;;;24.58;60.45;101378.98;1676800;85;21106;-84
2022/07/22 07:23:37;;;;;;;20.00;14.93;;;;;;;24.49;60.86;101385.02;1678507;84;21760;-83
2022/07/22 07:26:04;;;;;;;19.60;14.28;;;;;;;24.42;61.35;101405.34;1676109;85;21099;-84
2022/07/22 07:28:31;;;;;;;19.23;14.18;;;;;;;24.35;61.76;101418.97;1677067;84;21091;-83
2022/07/22 07:30:57;;;;;;;19.80;15.98;;;;;;;24.31;62.01;101446.39;1674142;85;21175;-83
2022/07/22 07:33:24;;;;;;;18.98;15.00;;;;;;;24.29;62.23;101453.62;1672354;83;22069;-84
2022/07/22 07:35:51;;;;;;;23.47;18.07;;;;;;;24.22;62.48;101447.93;1672280;85;21760;-84
2022/07/22 07:38:18;;;;;;;23.47;16.80;;;;;;;24.11;62.71;101439.20;1673350;85;21098;-83
2022/07/22 07:40:44;;;;;;;17.48;15.32;;;;;;;23.97;62.98;101435.42;1673985;85;21100;-84
2022/07/22 07:43:11;;;;;;;24.95;15.70;;;;;;;23.85;63.33;101434.73;1667432;84;21084;-83
2022/07/22 07:45:38;;;;;;;17.70;14.53;;;;;;;23.77;63.79;101427.26;1671591;84;21148;-84
2022/07/22 07:48:06;;;;;;;18.52;14.35;;;;;;;23.71;63.93;101440.83;1671715;85;22806;-84
2022/07/22 07:50:32;;;;;;;21.80;15.13;;;;;;;23.67;64.11;101434.61;1668451;84;21099;-84
2022/07/22 07:52:59;;;;;;;16.87;14.55;;;;;;;23.63;64.45;101434.25;1667105;85;21106;-84
2022/07/22 07:55:26;;;;;;;18.77;14.65;;;;;;;23.59;64.71;101432.51;1670440;84;21068;-83
2022/07/22 07:57:52;;;;;;;21.80;14.80;;;;;;;23.58;64.99;101435.25;1666235;85;21096;-84
2022/07/22 08:00:22;;;;;;;22.87;13.75;;;;;;;23.57;65.23;101429.43;1669735;84;22831;-84
2022/07/22 08:02:51;;;;;;;20.05;13.90;;;;;;;23.53;65.50;101421.00;1639332;85;40846;-84
2022/07/22 08:05:19;;;;;;;16.35;14.25;;;;;;;23.60;65.81;101429.39;1672088;84;21170;-83
2022/07/22 08:07:46;;;;;;;18.10;14.03;;;;;;;23.66;65.92;101427.45;1671226;84;22105;-83
2022/07/22 08:10:13;;;;;;;20.90;14.35;;;;;;;23.74;66.18;101432.68;1671233;83;21520;-84
2022/07/22 08:12:39;;;;;;;20.88;16.42;;;;;;;23.83;66.23;101427.63;1671206;85;22509;-84
2022/07/22 08:15:08;;;;;;;21.30;15.72;;;;;;;23.86;66.36;101412.33;1672818;84;21928;-83
2022/07/22 08:17:35;;;;;;;22.50;17.45;;;;;;;23.85;66.23;101402.95;1671190;84;21115;-84
2022/07/22 08:20:02;;;;;;;24.40;17.67;;;;;;;23.83;66.12;101378.77;1671184;84;21056;-84
2022/07/22 08:22:29;;;;;;;29.92;18.60;;;;;;;23.86;66.10;101361.25;1672012;84;21143;-84
2022/07/22 08:24:56;;;;;;;20.80;16.95;;;;;;;23.94;66.06;101332.86;1671535;84;21841;-84
2022/07/22 08:27:22;;;;;;;21.85;17.32;;;;;;;23.94;65.60;101315.37;1671984;84;21294;-84
2022/07/22 08:29:49;;;;;;;21.82;16.17;;;;;;;23.88;65.31;101317.33;1671869;84;21086;-84
2022/07/22 08:32:16;;;;;;;24.87;18.00;;;;;;;23.85;65.37;101316.45;1672887;85;21077;-84
2022/07/22 08:34:43;;;;;;;17.85;14.87;;;;;;;23.88;65.40;101316.86;1640529;86;21079;-84
2022/07/22 08:37:09;;;;;;;17.37;15.38;;;;;;;23.87;65.10;101313.73;1651578;85;21724;-84
2022/07/22 08:39:36;;;;;;;21.55;16.87;;;;;;;23.91;65.08;101321.28;1671932;84;21134;-84
2022/07/22 08:42:03;;;;;;;18.87;15.43;;;;;;;24.02;65.11;101330.00;1671718;84;21103;-84
2022/07/22 08:44:31;;;;;;;20.55;16.67;;;;;;;24.14;65.30;101331.52;1645120;84;22073;-84
2022/07/22 08:47:07;;;;;;;18.77;16.25;;;;;;;24.29;65.40;101332.98;1618356;86;21945;-84
2022/07/22 08:49:34;;;;;;;16.52;14.80;;;;;;;24.40;65.25;101329.59;1651100;85;21828;-84
2022/07/22 08:52:01;;;;;;;18.65;16.65;;;;;;;24.50;65.33;101325.78;1640687;86;21548;-84
2022/07/22 08:54:28;;;;;;;20.52;16.37;;;;;;;24.59;65.36;101314.83;1629471;85;21530;-84
2022/07/22 08:56:55;;;;;;;23.73;16.40;;;;;;;24.69;65.33;101313.26;1628567;87;22279;-84
2022/07/22 08:59:24;;;;;;;19.48;16.45;;;;;;;24.83;65.21;101307.05;1628567;86;21102;-84
2022/07/22 09:02:11;;;;;;;19.10;16.05;;;;;;;25.12;65.39;101299.56;1628528;86;22574;-84
2022/07/22 09:05:00;;;;;;;19.67;15.28;;;;;;;25.47;64.96;101301.80;1611048;87;21123;-85
2022/07/22 09:07:30;;;;;;;19.30;15.78;;;;;;;25.87;64.61;101328.94;1627540;87;21137;-84
2022/07/22 09:09:58;;;;;;;19.80;14.98;;;;;;;26.28;64.50;101328.66;1630497;87;21506;-84
2022/07/22 09:12:27;;;;;;;25.37;17.27;;;;;;;26.63;64.08;101345.09;1629960;86;21031;-84
2022/07/22 09:14:55;;;;;;;21.57;15.43;;;;;;;26.91;63.35;101352.28;1630404;86;22487;-84
2022/07/22 09:17:35;;;;;;;25.12;15.35;;;;;;;26.97;62.82;101353.42;1630605;86;21007;-85
2022/07/22 09:20:01;;;;;;;19.32;16.52;;;;;;;26.89;62.32;101347.41;1625828;86;21019;-85
2022/07/22 09:22:42;;;;;;;20.65;14.98;;;;;;;26.94;62.22;101353.55;1626835;86;21507;-84
2022/07/22 09:25:29;;;;;;;16.20;12.35;;;;;;;26.91;62.31;101357.69;1617748;86;21031;-83
2022/07/22 09:28:09;;;;;;;18.25;13.25;;;;;;;26.88;61.69;101361.39;1630078;86;21582;-82
2022/07/22 09:30:49;;;;;;;14.13;12.60;;;;;;;26.82;61.69;101356.64;1615560;86;21007;-84
2022/07/22 09:33:16;;;;;;;15.48;12.78;;;;;;;26.85;61.59;101353.84;1627460;86;21518;-83
2022/07/22 09:35:43;;;;;;;18.87;13.25;;;;;;;26.92;61.33;101356.29;1622105;86;21113;-83
2022/07/22 09:38:11;;;;;;;15.05;10.13;;;;;;;27.08;61.39;101358.47;1622021;86;21121;-83
2022/07/22 09:40:43;;;;;;;12.90;8.90;;;;;;;27.22;60.75;101360.23;1618772;86;21771;-82
2022/07/22 09:43:13;;;;;;;9.55;8.50;;;;;;;27.38;60.22;101358.38;1625485;86;21556;-83
2022/07/22 09:45:50;;;;;;;11.45;8.65;;;;;;;27.38;59.49;101352.48;1645657;84;21091;-84
2022/07/22 09:48:20;;;;;;;11.05;8.40;;;;;;;27.38;59.23;101355.19;1613794;87;21158;-84
2022/07/22 09:50:49;;;;;;;9.35;8.38;;;;;;;27.42;59.30;101356.84;1674549;83;21082;-84
2022/07/22 09:53:18;;;;;;;10.58;8.03;;;;;;;27.51;59.19;101356.98;1646570;84;22568;-84
2022/07/22 09:55:46;;;;;;;9.35;7.62;;;;;;;27.53;58.45;101358.69;1651052;84;21120;-84
2022/07/22 09:58:13;;;;;;;10.32;8.48;;;;;;;27.49;58.35;101363.80;1613864;86;21121;-84
2022/07/22 10:00:40;;;;;;;9.80;7.92;;;;;;;27.42;58.04;101356.84;1676030;83;21157;-84
2022/07/22 10:03:10;;;;;;;12.00;9.30;;;;;;;27.31;58.05;101357.24;1647645;84;21109;-83
2022/07/22 10:05:39;;;;;;;14.38;9.18;;;;;;;27.22;57.92;101355.31;1654764;84;21843;-84
2022/07/22 10:08:06;;;;;;;9.78;8.75;;;;;;;27.15;58.13;101351.92;1654314;84;21113;-83
2022/07/22 10:10:33;;;;;;;10.53;8.88;;;;;;;27.14;58.46;101357.80;1673424;83;21153;-84
2022/07/22 10:13:01;;;;;;;12.35;9.58;;;;;;;27.13;58.50;101355.14;1645610;85;21353;-84
2022/07/22 10:15:28;;;;;;;12.25;9.80;;;;;;;27.15;58.34;101353.27;1647821;85;21084;-84
2022/07/22 10:17:57;;;;;;;14.20;9.88;;;;;;;27.15;58.56;101362.25;1638112;85;21757;-84
2022/07/22 10:20:29;;;;;;;13.48;9.78;;;;;;;27.17;58.34;101353.22;1671050;83;21451;-85
2022/07/22 10:23:05;;;;;;;12.65;8.98;;;;;;;27.21;58.60;101360.28;1671046;83;21145;-84
2022/07/22 10:25:58;;;;;;;10.90;9.45;;;;;;;27.26;58.84;101359.22;1675664;83;21062;-84
2022/07/22 10:28:31;;;;;;;13.23;9.40;;;;;;;27.34;58.63;101359.82;1673857;83;21101;-84
2022/07/22 10:31:24;;;;;;;15.40;10.78;;;;;;;27.40;58.49;101356.02;1688663;83;21077;-84
2022/07/22 10:33:55;;;;;;;13.78;10.80;;;;;;;27.42;58.45;101358.67;1656374;83;21086;-84
2022/07/22 10:36:38;;;;;;;12.07;9.95;;;;;;;27.47;58.21;101355.34;1697294;81;21062;-83
2022/07/22 10:39:11;;;;;;;11.22;10.05;;;;;;;27.52;58.10;101353.36;1654407;85;21082;-83
2022/07/22 10:41:43;;;;;;;12.25;10.15;;;;;;;27.62;57.98;101354.77;1655382;85;21109;-84
2022/07/22 10:44:10;;;;;;;10.78;9.25;;;;;;;27.74;57.76;101352.08;1684221;83;23072;-83
2022/07/22 10:46:52;;;;;;;11.53;9.78;;;;;;;27.87;57.46;101352.06;1681397;84;21582;-83
2022/07/22 10:49:23;;;;;;;12.27;10.70;;;;;;;28.04;57.23;101347.39;1682653;84;21079;-83
2022/07/22 10:52:12;;;;;;;11.20;10.05;;;;;;;28.29;57.15;101341.02;1682601;84;21071;-83
2022/07/22 10:55:21;;;;;;;10.93;9.83;;;;;;;28.55;56.54;101341.36;1681340;84;21088;-83
2022/07/22 10:57:48;;;;;;;9.48;8.20;;;;;;;28.87;55.79;101337.78;1648112;86;21771;-83
2022/07/22 11:00:16;;;;;;;10.25;9.18;;;;;;;29.03;55.02;101332.09;1647332;85;21106;-83
2022/07/22 11:02:42;;;;;;;10.78;9.78;;;;;;;29.09;54.89;101336.36;1654164;83;21105;-83
2022/07/22 11:05:11;;;;;;;11.97;10.72;;;;;;;29.16;54.43;101333.83;1657557;83;21109;-84
2022/07/22 11:07:45;;;;;;;13.32;11.78;;;;;;;29.17;53.93;101332.90;1659994;85;21042;-84
2022/07/22 11:10:14;;;;;;;11.43;10.40;;;;;;;29.19;53.74;101332.36;1657294;85;22394;-83
2022/07/22 11:12:41;;;;;;;11.18;10.08;;;;;;;29.19;53.30;101332.36;1658262;83;21086;-84
2022/07/22 11:15:08;;;;;;;13.38;11.48;;;;;;;29.12;52.81;101324.53;1674515;84;22220;-85